WetterOnline ( http://www.wetteronline.de )

Wetter aktuell Warwerort

Aktuelles Wetter: Heide/Elpersbüttel (5m)

6-stündlich | Neueste Meldungen
Ortszeit Temperatur Wetter
Mo, 19.11. 13:00 6.2° C leicht bewölkt
Mo, 19.11. 7:00 4.6° C Sprühregen
Mo, 19.11. 1:00 4.5° C wolkig
So, 18.11. 19:00 6.3° C bedeckt
So, 18.11. 13:00 6.3° C wolkig
So, 18.11. 7:00 -1.8° C wolkig
So, 18.11. 1:00 -0.2° C wolkenlos
Sa, 17.11. 19:00 2.0° C wolkenlos
Ortszeit Temperatur Wetter
Mo, 19.11. 14:40 7.3° C leicht bewölkt
Mo, 19.11. 14:30 7.7° C leicht bewölkt
Mo, 19.11. 14:20 7.7° C leicht bewölkt
Mo, 19.11. 14:10 7.3° C wolkenlos
Mo, 19.11. 14:00 6.9° C wolkenlos
Mo, 19.11. 13:50 6.9° C wolkenlos
Mo, 19.11. 13:30 6.7° C leicht bewölkt
Mo, 19.11. 13:00 6.2° C leicht bewölkt
Mo, 19.11. 12:30 6.1° C bewölkt
Mo, 19.11. 12:00 6.2° C Sprühregen
Mo, 19.11. 11:30 5.6° C bedeckt
Ortszeit Relative Feuchte Sichtweite
Mo, 19.11. 13:00 82% 65 km
Mo, 19.11. 7:00 90% 19 km
Mo, 19.11. 1:00 86% >70 km
So, 18.11. 19:00 82% 45 km
So, 18.11. 13:00 85% 14 km
So, 18.11. 7:00 94% 6 km
So, 18.11. 1:00 88% 12 km
Sa, 17.11. 19:00 89% 9 km
Ortszeit Relative Feuchte Sichtweite
Mo, 19.11. 14:40 72% -
Mo, 19.11. 14:30 78% 65 km
Mo, 19.11. 14:20 78% -
Mo, 19.11. 14:10 75% -
Mo, 19.11. 14:00 79% 60 km
Mo, 19.11. 13:50 79% -
Mo, 19.11. 13:30 81% 50 km
Mo, 19.11. 13:00 82% 65 km
Mo, 19.11. 12:30 85% 65 km
Mo, 19.11. 12:00 85% 30 km
Mo, 19.11. 11:30 88% 60 km
Ortszeit Niederschlagsmenge Niederschlagsart
Mo, 19.11. 13:00 2 l/m2 in 6 Std. Regen
Mo, 19.11. 7:00 0.1 l/m2 in 12 Std. Regen
Mo, 19.11. 1:00 0.0 l/m2 in 6 Std. -
So, 18.11. 19:00 0.0 l/m2 in 12 Std. -
So, 18.11. 13:00 0.0 l/m2 in 6 Std. -
So, 18.11. 7:00 0.0 l/m2 in 12 Std. -
So, 18.11. 1:00 0.0 l/m2 in 6 Std. -
Sa, 17.11. 19:00 0.0 l/m2 in 12 Std. -
Ortszeit Niederschlagsmenge Niederschlagsart
Mo, 19.11. 14:40 keine Meldung -
Mo, 19.11. 14:30 0.0 l/m2 in 1 Std. -
Mo, 19.11. 14:20 keine Meldung -
Mo, 19.11. 14:10 keine Meldung -
Mo, 19.11. 14:00 0.0 l/m2 in 1 Std. -
Mo, 19.11. 13:50 keine Meldung -
Mo, 19.11. 13:30 0.0 l/m2 in 1 Std. -
Mo, 19.11. 13:00 0.1 l/m2 in 1 Std. Regen
Mo, 19.11. 12:30 0.1 l/m2 in 1 Std. Schnee
Mo, 19.11. 12:00 1.1 l/m2 in 1 Std. Regen
Mo, 19.11. 11:30 1.1 l/m2 in 1 Std. Schneeregen
Ortszeit Stärke Spitze Richtung
km/h Bft. km/h Grad Sektor
Mo, 19.11. 13:00 28 4 46 60° NO
Mo, 19.11. 7:00 22 4 36 40° NO
Mo, 19.11. 1:00 18 3 43 40° NO
So, 18.11. 19:00 22 4 29 50° NO
So, 18.11. 13:00 13 3 22 50° NO
So, 18.11. 7:00 7 2 18 30° NO
So, 18.11. 1:00 7 2 14 80° O
Sa, 17.11. 19:00 11 2 25 70° O
Ortszeit Stärke Spitze Richtung
km/h Bft. km/h Grad Sektor
Mo, 19.11. 14:40 26 4 - 60° NO
Mo, 19.11. 14:30 22 4 39 70° O
Mo, 19.11. 14:20 22 4 - 70° O
Mo, 19.11. 14:10 25 4 - 60° NO
Mo, 19.11. 14:00 25 4 43 60° NO
Mo, 19.11. 13:50 25 4 - 60° NO
Mo, 19.11. 13:30 25 4 43 60° NO
Mo, 19.11. 13:00 28 4 43 60° NO
Mo, 19.11. 12:30 25 4 43 60° NO
Mo, 19.11. 12:00 28 4 46 60° NO
Mo, 19.11. 11:30 22 4 35 60° NO
Ortszeit Untergrenze Bedeckung Gattung
total tief tief mittel hoch
Mo, 19.11. 13:00 690 m 4/8 4/8 - - -
Mo, 19.11. 7:00 60 m 8/8 7/8 - - -
Mo, 19.11. 1:00 6000 m 6/8 6/8 - - -
So, 18.11. 19:00 1080 m 8/8 8/8 - - -
So, 18.11. 13:00 750 m 6/8 7/8 - - -
So, 18.11. 7:00 5400 m 5/8 5/8 - - -
So, 18.11. 1:00 - 0/8 0/8 - - -
Sa, 17.11. 19:00 - 0/8 0/8 - - -
Ortszeit Bedeckungsgrad in Achtel und Wolkenuntergrenze
Mo, 19.11. 14:40 2(600m) 3(750m) 4(870m)
Mo, 19.11. 14:30 2(570m) 4(750m) 5(870m)
Mo, 19.11. 14:20 2(570m)
Mo, 19.11. 14:10 keine Wolken
Mo, 19.11. 14:00 keine Wolken
Mo, 19.11. 13:50 keine Wolken
Mo, 19.11. 13:30 1(840m)
Mo, 19.11. 13:00 2(690m) 4(930m)
Mo, 19.11. 12:30 5(570m) 6(900m) 7(2100m)
Mo, 19.11. 12:00 3(510m) 5(1080m) 7(2100m)
Mo, 19.11. 11:30 1(30m) 6(930m) 8(2100m)
Ortszeit Luftdruck NN (hPa) Tendenz (hPa in 3 Std.)
Mo, 19.11. 13:00 1026 - 1,5
Mo, 19.11. 7:00 1028 - 1,3
Mo, 19.11. 1:00 1031 - 1,0
So, 18.11. 19:00 1032 - 0,5
So, 18.11. 13:00 1034 - 1,5
So, 18.11. 7:00 1036 - 0,8
So, 18.11. 1:00 1038 - 0,1
Sa, 17.11. 19:00 1038 - 0,2
Ortszeit Luftdruck NN (hPa) Tendenz (hPa in 3 Std.)
Mo, 19.11. 14:40 1025 keine Meldung
Mo, 19.11. 14:30 1025 - 1,7
Mo, 19.11. 14:20 1025 keine Meldung
Mo, 19.11. 14:10 1025 keine Meldung
Mo, 19.11. 14:00 1025 - 2,0
Mo, 19.11. 13:50 1025 keine Meldung
Mo, 19.11. 13:30 1026 - 1,7
Mo, 19.11. 13:00 1026 - 1,5
Mo, 19.11. 12:30 1026 - 1,3
Mo, 19.11. 12:00 1026 - 1,2
Mo, 19.11. 11:30 1027 - 0,9
Ortszeit Schneehöhe (cm)
Mo, 19.11. 13:00 0
Mo, 19.11. 7:00 0
Mo, 19.11. 1:00 0
So, 18.11. 19:00 0
So, 18.11. 13:00 0
So, 18.11. 7:00 0
So, 18.11. 1:00 0
Sa, 17.11. 19:00 0
Ortszeit Schneehöhe (cm)
Mo, 19.11. 14:40 0
Mo, 19.11. 14:30 0
Mo, 19.11. 14:20 0
Mo, 19.11. 14:10 0
Mo, 19.11. 14:00 0
Mo, 19.11. 13:50 0
Mo, 19.11. 13:30 0
Mo, 19.11. 13:00 0
Mo, 19.11. 12:30 0
Mo, 19.11. 12:00 0
Mo, 19.11. 11:30 0
Link zu dieser Seite / Seite empfehlen

Das Wetter in ...